sensor_id;sensor_type;location;lat;lon;timestamp;P1;durP1;ratioP1;P2;durP2;ratioP2
9771;SDS011;4925;52.588;13.370;2022-12-29T00:01:52;12.07;;;6.50;;
9771;SDS011;4925;52.588;13.370;2022-12-29T00:04:18;8.40;;;6.83;;
9771;SDS011;4925;52.588;13.370;2022-12-29T00:06:44;6.03;;;3.17;;
9771;SDS011;4925;52.588;13.370;2022-12-29T00:09:10;5.43;;;2.70;;
9771;SDS011;4925;52.588;13.370;2022-12-29T00:11:37;2.17;;;1.30;;
9771;SDS011;4925;52.588;13.370;2022-12-29T00:14:03;2.50;;;1.80;;
9771;SDS011;4925;52.588;13.370;2022-12-29T00:16:47;2.93;;;1.83;;
9771;SDS011;4925;52.588;13.370;2022-12-29T00:19:12;7.00;;;4.90;;
9771;SDS011;4925;52.588;13.370;2022-12-29T00:21:57;3.97;;;2.43;;
9771;SDS011;4925;52.588;13.370;2022-12-29T00:24:43;8.90;;;4.77;;
9771;SDS011;4925;52.588;13.370;2022-12-29T00:27:28;3.57;;;2.80;;
9771;SDS011;4925;52.588;13.370;2022-12-29T00:30:14;3.90;;;2.07;;
9771;SDS011;4925;52.588;13.370;2022-12-29T00:33:00;5.37;;;1.43;;
9771;SDS011;4925;52.588;13.370;2022-12-29T00:35:50;3.23;;;2.60;;
9771;SDS011;4925;52.588;13.370;2022-12-29T00:38:20;3.03;;;2.00;;
9771;SDS011;4925;52.588;13.370;2022-12-29T00:41:05;2.50;;;1.53;;
9771;SDS011;4925;52.588;13.370;2022-12-29T00:43:49;1.40;;;1.23;;
9771;SDS011;4925;52.588;13.370;2022-12-29T00:46:30;3.03;;;1.90;;
9771;SDS011;4925;52.588;13.370;2022-12-29T00:48:57;2.47;;;1.73;;
9771;SDS011;4925;52.588;13.370;2022-12-29T00:51:42;3.10;;;2.07;;
9771;SDS011;4925;52.588;13.370;2022-12-29T00:54:08;4.50;;;2.70;;
9771;SDS011;4925;52.588;13.370;2022-12-29T00:56:34;7.17;;;4.20;;
9771;SDS011;4925;52.588;13.370;2022-12-29T00:59:03;3.80;;;1.93;;
9771;SDS011;4925;52.588;13.370;2022-12-29T01:01:30;2.70;;;1.73;;
9771;SDS011;4925;52.588;13.370;2022-12-29T01:03:56;5.30;;;3.27;;
9771;SDS011;4925;52.588;13.370;2022-12-29T01:06:22;3.97;;;2.23;;
9771;SDS011;4925;52.588;13.370;2022-12-29T01:08:48;5.60;;;2.50;;
9771;SDS011;4925;52.588;13.370;2022-12-29T01:11:39;6.43;;;3.60;;
9771;SDS011;4925;52.588;13.370;2022-12-29T01:14:05;5.70;;;3.03;;
9771;SDS011;4925;52.588;13.370;2022-12-29T01:16:31;3.40;;;2.20;;
9771;SDS011;4925;52.588;13.370;2022-12-29T01:18:57;5.90;;;3.33;;
9771;SDS011;4925;52.588;13.370;2022-12-29T01:21:24;1.37;;;1.23;;
9771;SDS011;4925;52.588;13.370;2022-12-29T01:23:49;4.50;;;1.97;;
9771;SDS011;4925;52.588;13.370;2022-12-29T01:26:16;1.53;;;1.40;;
9771;SDS011;4925;52.588;13.370;2022-12-29T01:28:42;3.20;;;1.43;;
9771;SDS011;4925;52.588;13.370;2022-12-29T01:31:09;5.47;;;2.40;;
9771;SDS011;4925;52.588;13.370;2022-12-29T01:33:36;2.30;;;1.87;;
9771;SDS011;4925;52.588;13.370;2022-12-29T01:36:02;3.47;;;1.70;;
9771;SDS011;4925;52.588;13.370;2022-12-29T01:38:32;2.97;;;2.00;;
9771;SDS011;4925;52.588;13.370;2022-12-29T01:40:58;3.23;;;1.93;;
9771;SDS011;4925;52.588;13.370;2022-12-29T01:46:04;2.87;;;2.13;;
9771;SDS011;4925;52.588;13.370;2022-12-29T01:48:41;2.00;;;1.63;;
9771;SDS011;4925;52.588;13.370;2022-12-29T01:51:08;1.93;;;1.70;;
9771;SDS011;4925;52.588;13.370;2022-12-29T01:53:34;2.90;;;1.40;;
9771;SDS011;4925;52.588;13.370;2022-12-29T01:56:03;1.30;;;1.20;;
9771;SDS011;4925;52.588;13.370;2022-12-29T01:58:33;1.23;;;1.20;;
9771;SDS011;4925;52.588;13.370;2022-12-29T02:01:04;2.50;;;1.47;;
9771;SDS011;4925;52.588;13.370;2022-12-29T02:03:30;1.57;;;1.10;;
9771;SDS011;4925;52.588;13.370;2022-12-29T02:08:36;1.33;;;1.10;;
9771;SDS011;4925;52.588;13.370;2022-12-29T02:11:03;1.00;;;1.00;;
9771;SDS011;4925;52.588;13.370;2022-12-29T02:13:29;1.20;;;1.10;;
9771;SDS011;4925;52.588;13.370;2022-12-29T02:39:27;1.10;;;1.10;;
9771;SDS011;4925;52.588;13.370;2022-12-29T02:42:09;1.50;;;1.00;;
9771;SDS011;4925;52.588;13.370;2022-12-29T02:52:56;1.20;;;1.10;;
9771;SDS011;4925;52.588;13.370;2022-12-29T02:55:24;1.47;;;1.07;;
9771;SDS011;4925;52.588;13.370;2022-12-29T02:58:05;1.10;;;1.07;;
9771;SDS011;4925;52.588;13.370;2022-12-29T03:00:36;3.83;;;1.13;;
9771;SDS011;4925;52.588;13.370;2022-12-29T03:08:31;1.03;;;1.03;;
9771;SDS011;4925;52.588;13.370;2022-12-29T03:11:33;1.53;;;1.00;;
9771;SDS011;4925;52.588;13.370;2022-12-29T03:14:29;2.13;;;1.10;;
9771;SDS011;4925;52.588;13.370;2022-12-29T03:17:28;1.30;;;1.03;;
9771;SDS011;4925;52.588;13.370;2022-12-29T03:20:18;1.00;;;1.00;;
9771;SDS011;4925;52.588;13.370;2022-12-29T03:22:51;0.90;;;0.90;;
9771;SDS011;4925;52.588;13.370;2022-12-29T03:25:23;1.87;;;1.13;;
9771;SDS011;4925;52.588;13.370;2022-12-29T03:28:02;1.17;;;1.07;;
9771;SDS011;4925;52.588;13.370;2022-12-29T03:30:31;1.03;;;0.90;;
9771;SDS011;4925;52.588;13.370;2022-12-29T03:32:59;2.77;;;1.30;;
9771;SDS011;4925;52.588;13.370;2022-12-29T03:35:30;1.00;;;1.00;;
9771;SDS011;4925;52.588;13.370;2022-12-29T03:40:32;1.97;;;1.10;;
9771;SDS011;4925;52.588;13.370;2022-12-29T03:42:59;0.87;;;0.87;;
9771;SDS011;4925;52.588;13.370;2022-12-29T03:45:26;1.40;;;1.10;;
9771;SDS011;4925;52.588;13.370;2022-12-29T03:47:52;1.13;;;1.10;;
9771;SDS011;4925;52.588;13.370;2022-12-29T03:50:18;1.33;;;1.23;;
9771;SDS011;4925;52.588;13.370;2022-12-29T03:52:44;1.07;;;1.07;;
9771;SDS011;4925;52.588;13.370;2022-12-29T03:55:10;2.37;;;1.47;;
9771;SDS011;4925;52.588;13.370;2022-12-29T03:57:36;1.07;;;1.07;;
9771;SDS011;4925;52.588;13.370;2022-12-29T04:00:03;2.60;;;1.10;;
9771;SDS011;4925;52.588;13.370;2022-12-29T04:02:29;2.07;;;1.10;;
9771;SDS011;4925;52.588;13.370;2022-12-29T04:04:55;1.30;;;1.00;;
9771;SDS011;4925;52.588;13.370;2022-12-29T04:07:21;1.90;;;1.00;;
9771;SDS011;4925;52.588;13.370;2022-12-29T04:09:46;3.83;;;1.10;;
9771;SDS011;4925;52.588;13.370;2022-12-29T04:12:12;1.67;;;1.17;;
9771;SDS011;4925;52.588;13.370;2022-12-29T04:14:39;1.00;;;1.00;;
9771;SDS011;4925;52.588;13.370;2022-12-29T04:17:05;1.23;;;1.20;;
9771;SDS011;4925;52.588;13.370;2022-12-29T04:19:31;2.13;;;1.73;;
9771;SDS011;4925;52.588;13.370;2022-12-29T04:21:56;1.97;;;1.10;;
9771;SDS011;4925;52.588;13.370;2022-12-29T04:24:22;1.10;;;0.97;;
9771;SDS011;4925;52.588;13.370;2022-12-29T04:26:48;1.40;;;1.30;;
9771;SDS011;4925;52.588;13.370;2022-12-29T04:29:13;1.60;;;0.93;;
9771;SDS011;4925;52.588;13.370;2022-12-29T04:31:39;1.57;;;1.27;;
9771;SDS011;4925;52.588;13.370;2022-12-29T04:34:05;1.67;;;1.10;;
9771;SDS011;4925;52.588;13.370;2022-12-29T04:36:30;1.80;;;1.33;;
9771;SDS011;4925;52.588;13.370;2022-12-29T04:38:56;1.40;;;1.30;;
9771;SDS011;4925;52.588;13.370;2022-12-29T04:41:23;1.17;;;1.03;;
9771;SDS011;4925;52.588;13.370;2022-12-29T04:43:48;0.90;;;0.90;;
9771;SDS011;4925;52.588;13.370;2022-12-29T04:46:14;1.13;;;1.03;;
9771;SDS011;4925;52.588;13.370;2022-12-29T04:48:40;1.87;;;1.10;;
9771;SDS011;4925;52.588;13.370;2022-12-29T04:51:05;1.57;;;1.00;;
9771;SDS011;4925;52.588;13.370;2022-12-29T04:53:31;1.17;;;1.10;;
9771;SDS011;4925;52.588;13.370;2022-12-29T04:55:56;2.50;;;1.20;;
9771;SDS011;4925;52.588;13.370;2022-12-29T04:58:22;1.50;;;1.00;;
9771;SDS011;4925;52.588;13.370;2022-12-29T05:00:48;2.20;;;1.00;;
9771;SDS011;4925;52.588;13.370;2022-12-29T05:03:13;1.47;;;1.10;;
9771;SDS011;4925;52.588;13.370;2022-12-29T05:05:39;1.10;;;1.00;;
9771;SDS011;4925;52.588;13.370;2022-12-29T05:08:05;0.90;;;0.90;;
9771;SDS011;4925;52.588;13.370;2022-12-29T05:10:31;1.07;;;1.03;;
9771;SDS011;4925;52.588;13.370;2022-12-29T05:12:57;1.63;;;1.13;;
9771;SDS011;4925;52.588;13.370;2022-12-29T05:15:23;2.00;;;1.00;;
9771;SDS011;4925;52.588;13.370;2022-12-29T05:17:48;2.50;;;1.43;;
9771;SDS011;4925;52.588;13.370;2022-12-29T05:20:14;1.27;;;1.10;;
9771;SDS011;4925;52.588;13.370;2022-12-29T05:22:40;2.00;;;1.20;;
9771;SDS011;4925;52.588;13.370;2022-12-29T05:25:05;5.17;;;1.10;;
9771;SDS011;4925;52.588;13.370;2022-12-29T05:27:31;1.00;;;1.00;;
9771;SDS011;4925;52.588;13.370;2022-12-29T05:29:57;1.17;;;1.00;;
9771;SDS011;4925;52.588;13.370;2022-12-29T05:32:23;1.50;;;1.03;;
9771;SDS011;4925;52.588;13.370;2022-12-29T05:34:48;5.30;;;1.23;;
9771;SDS011;4925;52.588;13.370;2022-12-29T05:37:14;2.77;;;1.10;;
9771;SDS011;4925;52.588;13.370;2022-12-29T05:39:40;1.70;;;1.20;;
9771;SDS011;4925;52.588;13.370;2022-12-29T05:42:07;1.30;;;1.20;;
9771;SDS011;4925;52.588;13.370;2022-12-29T05:44:33;1.57;;;1.10;;
9771;SDS011;4925;52.588;13.370;2022-12-29T05:46:58;1.40;;;1.30;;
9771;SDS011;4925;52.588;13.370;2022-12-29T05:49:24;1.20;;;1.10;;
9771;SDS011;4925;52.588;13.370;2022-12-29T05:51:49;1.20;;;1.10;;
9771;SDS011;4925;52.588;13.370;2022-12-29T05:54:15;1.13;;;1.03;;
9771;SDS011;4925;52.588;13.370;2022-12-29T05:56:41;2.90;;;1.00;;
9771;SDS011;4925;52.588;13.370;2022-12-29T05:59:06;1.67;;;1.10;;
9771;SDS011;4925;52.588;13.370;2022-12-29T06:01:32;1.33;;;1.23;;
9771;SDS011;4925;52.588;13.370;2022-12-29T06:03:59;1.40;;;1.30;;
9771;SDS011;4925;52.588;13.370;2022-12-29T06:06:25;2.73;;;1.37;;
9771;SDS011;4925;52.588;13.370;2022-12-29T06:08:51;1.53;;;1.10;;
9771;SDS011;4925;52.588;13.370;2022-12-29T06:11:16;1.13;;;1.07;;
9771;SDS011;4925;52.588;13.370;2022-12-29T06:13:42;1.03;;;1.03;;
9771;SDS011;4925;52.588;13.370;2022-12-29T06:16:08;1.00;;;1.00;;
9771;SDS011;4925;52.588;13.370;2022-12-29T06:18:34;1.20;;;1.10;;
9771;SDS011;4925;52.588;13.370;2022-12-29T06:21:00;1.30;;;0.93;;
9771;SDS011;4925;52.588;13.370;2022-12-29T06:23:27;1.13;;;1.03;;
9771;SDS011;4925;52.588;13.370;2022-12-29T06:25:53;1.90;;;1.00;;
9771;SDS011;4925;52.588;13.370;2022-12-29T06:28:19;0.80;;;0.80;;
9771;SDS011;4925;52.588;13.370;2022-12-29T06:30:44;1.10;;;1.10;;
9771;SDS011;4925;52.588;13.370;2022-12-29T06:33:11;2.37;;;1.03;;
9771;SDS011;4925;52.588;13.370;2022-12-29T06:35:37;1.70;;;1.40;;
9771;SDS011;4925;52.588;13.370;2022-12-29T06:38:03;1.43;;;1.03;;
9771;SDS011;4925;52.588;13.370;2022-12-29T06:40:29;2.23;;;1.10;;
9771;SDS011;4925;52.588;13.370;2022-12-29T06:42:55;1.33;;;0.90;;
9771;SDS011;4925;52.588;13.370;2022-12-29T06:45:20;6.43;;;1.43;;
9771;SDS011;4925;52.588;13.370;2022-12-29T06:47:46;2.93;;;1.13;;
9771;SDS011;4925;52.588;13.370;2022-12-29T06:50:11;1.23;;;0.90;;
9771;SDS011;4925;52.588;13.370;2022-12-29T06:52:37;1.07;;;0.73;;
9771;SDS011;4925;52.588;13.370;2022-12-29T06:55:03;1.30;;;1.20;;
9771;SDS011;4925;52.588;13.370;2022-12-29T06:57:29;0.90;;;0.90;;
9771;SDS011;4925;52.588;13.370;2022-12-29T06:59:54;1.53;;;1.10;;
9771;SDS011;4925;52.588;13.370;2022-12-29T07:02:21;1.03;;;1.00;;
9771;SDS011;4925;52.588;13.370;2022-12-29T07:04:47;0.90;;;0.90;;
9771;SDS011;4925;52.588;13.370;2022-12-29T07:07:12;1.37;;;0.80;;
9771;SDS011;4925;52.588;13.370;2022-12-29T07:09:38;1.03;;;0.90;;
9771;SDS011;4925;52.588;13.370;2022-12-29T07:12:04;1.80;;;0.90;;
9771;SDS011;4925;52.588;13.370;2022-12-29T07:14:29;2.30;;;0.93;;
9771;SDS011;4925;52.588;13.370;2022-12-29T07:16:55;1.00;;;0.80;;
9771;SDS011;4925;52.588;13.370;2022-12-29T07:19:21;1.03;;;0.93;;
9771;SDS011;4925;52.588;13.370;2022-12-29T07:21:46;0.90;;;0.90;;
9771;SDS011;4925;52.588;13.370;2022-12-29T07:24:12;1.40;;;1.20;;
9771;SDS011;4925;52.588;13.370;2022-12-29T07:26:38;1.00;;;1.00;;
9771;SDS011;4925;52.588;13.370;2022-12-29T07:29:03;1.47;;;1.00;;
9771;SDS011;4925;52.588;13.370;2022-12-29T07:31:29;1.73;;;1.00;;
9771;SDS011;4925;52.588;13.370;2022-12-29T07:33:55;0.73;;;0.73;;
9771;SDS011;4925;52.588;13.370;2022-12-29T07:36:21;2.20;;;0.80;;
9771;SDS011;4925;52.588;13.370;2022-12-29T07:38:46;2.00;;;0.87;;
9771;SDS011;4925;52.588;13.370;2022-12-29T07:41:12;2.73;;;0.90;;
9771;SDS011;4925;52.588;13.370;2022-12-29T07:43:38;1.47;;;1.00;;
9771;SDS011;4925;52.588;13.370;2022-12-29T07:46:04;3.27;;;1.00;;
9771;SDS011;4925;52.588;13.370;2022-12-29T07:48:29;1.13;;;1.10;;
9771;SDS011;4925;52.588;13.370;2022-12-29T07:50:55;1.20;;;1.10;;
9771;SDS011;4925;52.588;13.370;2022-12-29T07:53:21;2.27;;;1.20;;
9771;SDS011;4925;52.588;13.370;2022-12-29T07:55:46;0.90;;;0.90;;
9771;SDS011;4925;52.588;13.370;2022-12-29T07:58:12;3.20;;;1.23;;
9771;SDS011;4925;52.588;13.370;2022-12-29T08:00:38;0.90;;;0.90;;
9771;SDS011;4925;52.588;13.370;2022-12-29T08:03:04;1.30;;;0.60;;
9771;SDS011;4925;52.588;13.370;2022-12-29T08:05:30;1.40;;;1.00;;
9771;SDS011;4925;52.588;13.370;2022-12-29T08:07:57;0.80;;;0.80;;
9771;SDS011;4925;52.588;13.370;2022-12-29T08:10:23;0.70;;;0.70;;
9771;SDS011;4925;52.588;13.370;2022-12-29T08:12:49;2.10;;;1.30;;
9771;SDS011;4925;52.588;13.370;2022-12-29T08:15:14;1.30;;;0.80;;
9771;SDS011;4925;52.588;13.370;2022-12-29T08:17:40;1.30;;;1.20;;
9771;SDS011;4925;52.588;13.370;2022-12-29T08:20:06;1.10;;;1.00;;
9771;SDS011;4925;52.588;13.370;2022-12-29T08:22:32;1.63;;;0.97;;
9771;SDS011;4925;52.588;13.370;2022-12-29T08:24:58;1.20;;;0.90;;
9771;SDS011;4925;52.588;13.370;2022-12-29T08:27:23;1.13;;;0.80;;
9771;SDS011;4925;52.588;13.370;2022-12-29T08:29:50;0.87;;;0.87;;
9771;SDS011;4925;52.588;13.370;2022-12-29T08:32:15;1.10;;;1.00;;
9771;SDS011;4925;52.588;13.370;2022-12-29T08:34:41;0.80;;;0.80;;
9771;SDS011;4925;52.588;13.370;2022-12-29T08:37:07;1.17;;;1.00;;
9771;SDS011;4925;52.588;13.370;2022-12-29T08:39:33;1.00;;;1.00;;
9771;SDS011;4925;52.588;13.370;2022-12-29T08:41:59;1.53;;;0.93;;
9771;SDS011;4925;52.588;13.370;2022-12-29T08:44:25;1.13;;;1.10;;
9771;SDS011;4925;52.588;13.370;2022-12-29T08:46:50;1.20;;;1.10;;
9771;SDS011;4925;52.588;13.370;2022-12-29T08:49:16;0.70;;;0.70;;
9771;SDS011;4925;52.588;13.370;2022-12-29T08:51:41;1.30;;;1.00;;
9771;SDS011;4925;52.588;13.370;2022-12-29T08:54:07;0.70;;;0.70;;
9771;SDS011;4925;52.588;13.370;2022-12-29T08:56:33;1.13;;;1.03;;
9771;SDS011;4925;52.588;13.370;2022-12-29T08:58:58;1.40;;;0.90;;
9771;SDS011;4925;52.588;13.370;2022-12-29T09:01:24;0.90;;;0.90;;
9771;SDS011;4925;52.588;13.370;2022-12-29T09:03:50;1.00;;;1.00;;
9771;SDS011;4925;52.588;13.370;2022-12-29T09:06:17;1.27;;;1.13;;
9771;SDS011;4925;52.588;13.370;2022-12-29T09:08:43;2.93;;;0.90;;
9771;SDS011;4925;52.588;13.370;2022-12-29T09:11:16;1.17;;;0.97;;
9771;SDS011;4925;52.588;13.370;2022-12-29T09:13:45;1.07;;;1.00;;
9771;SDS011;4925;52.588;13.370;2022-12-29T09:16:12;1.33;;;1.23;;
9771;SDS011;4925;52.588;13.370;2022-12-29T09:18:38;2.37;;;1.17;;
9771;SDS011;4925;52.588;13.370;2022-12-29T09:21:04;1.07;;;0.97;;
9771;SDS011;4925;52.588;13.370;2022-12-29T09:23:31;1.13;;;0.97;;
9771;SDS011;4925;52.588;13.370;2022-12-29T09:25:58;1.70;;;1.60;;
9771;SDS011;4925;52.588;13.370;2022-12-29T09:28:23;4.50;;;3.10;;
9771;SDS011;4925;52.588;13.370;2022-12-29T09:30:49;0.80;;;0.80;;
9771;SDS011;4925;52.588;13.370;2022-12-29T09:33:15;1.03;;;0.77;;
9771;SDS011;4925;52.588;13.370;2022-12-29T09:35:45;3.20;;;0.93;;
9771;SDS011;4925;52.588;13.370;2022-12-29T09:38:24;0.97;;;0.97;;
9771;SDS011;4925;52.588;13.370;2022-12-29T09:40:55;1.43;;;1.00;;
9771;SDS011;4925;52.588;13.370;2022-12-29T09:46:33;1.00;;;0.97;;
9771;SDS011;4925;52.588;13.370;2022-12-29T09:51:47;3.30;;;1.43;;
9771;SDS011;4925;52.588;13.370;2022-12-29T09:54:20;1.97;;;1.50;;
9771;SDS011;4925;52.588;13.370;2022-12-29T09:56:57;1.63;;;1.03;;
9771;SDS011;4925;52.588;13.370;2022-12-29T09:59:32;1.53;;;0.90;;
9771;SDS011;4925;52.588;13.370;2022-12-29T10:04:56;2.83;;;1.23;;
9771;SDS011;4925;52.588;13.370;2022-12-29T10:13:02;3.50;;;1.13;;
9771;SDS011;4925;52.588;13.370;2022-12-29T10:16:03;1.47;;;1.13;;
9771;SDS011;4925;52.588;13.370;2022-12-29T10:18:52;2.27;;;1.20;;
9771;SDS011;4925;52.588;13.370;2022-12-29T10:21:42;1.53;;;1.10;;
9771;SDS011;4925;52.588;13.370;2022-12-29T10:24:10;2.07;;;1.10;;
9771;SDS011;4925;52.588;13.370;2022-12-29T10:26:38;1.70;;;0.73;;
9771;SDS011;4925;52.588;13.370;2022-12-29T10:29:12;1.10;;;0.90;;
9771;SDS011;4925;52.588;13.370;2022-12-29T10:34:26;0.70;;;0.70;;
9771;SDS011;4925;52.588;13.370;2022-12-29T10:36:59;0.60;;;0.60;;
9771;SDS011;4925;52.588;13.370;2022-12-29T10:39:42;0.93;;;0.93;;
9771;SDS011;4925;52.588;13.370;2022-12-29T10:42:14;1.17;;;1.07;;
9771;SDS011;4925;52.588;13.370;2022-12-29T10:44:45;1.93;;;1.00;;
9771;SDS011;4925;52.588;13.370;2022-12-29T10:47:13;1.40;;;0.60;;
9771;SDS011;4925;52.588;13.370;2022-12-29T10:49:44;1.80;;;0.80;;
9771;SDS011;4925;52.588;13.370;2022-12-29T10:52:12;0.87;;;0.70;;
9771;SDS011;4925;52.588;13.370;2022-12-29T10:57:28;2.50;;;0.80;;
9771;SDS011;4925;52.588;13.370;2022-12-29T11:00:04;2.40;;;0.90;;
9771;SDS011;4925;52.588;13.370;2022-12-29T11:05:30;0.80;;;0.80;;
9771;SDS011;4925;52.588;13.370;2022-12-29T11:08:10;5.10;;;1.20;;
9771;SDS011;4925;52.588;13.370;2022-12-29T11:10:40;1.13;;;0.70;;
9771;SDS011;4925;52.588;13.370;2022-12-29T11:15:42;1.00;;;0.90;;
9771;SDS011;4925;52.588;13.370;2022-12-29T11:21:23;2.10;;;0.93;;
9771;SDS011;4925;52.588;13.370;2022-12-29T11:23:58;1.80;;;1.10;;
9771;SDS011;4925;52.588;13.370;2022-12-29T11:26:28;0.83;;;0.70;;
9771;SDS011;4925;52.588;13.370;2022-12-29T11:31:50;0.70;;;0.70;;
9771;SDS011;4925;52.588;13.370;2022-12-29T11:34:24;2.00;;;1.10;;
9771;SDS011;4925;52.588;13.370;2022-12-29T11:36:51;1.47;;;0.77;;
9771;SDS011;4925;52.588;13.370;2022-12-29T11:39:28;0.87;;;0.87;;
9771;SDS011;4925;52.588;13.370;2022-12-29T11:42:01;1.70;;;0.90;;
9771;SDS011;4925;52.588;13.370;2022-12-29T11:44:29;0.70;;;0.70;;
9771;SDS011;4925;52.588;13.370;2022-12-29T11:47:00;0.83;;;0.80;;
9771;SDS011;4925;52.588;13.370;2022-12-29T11:49:26;0.93;;;0.93;;
9771;SDS011;4925;52.588;13.370;2022-12-29T11:51:52;2.10;;;0.80;;
9771;SDS011;4925;52.588;13.370;2022-12-29T11:54:29;0.93;;;0.70;;
9771;SDS011;4925;52.588;13.370;2022-12-29T11:56:58;1.07;;;0.73;;
9771;SDS011;4925;52.588;13.370;2022-12-29T11:59:42;1.20;;;0.70;;
9771;SDS011;4925;52.588;13.370;2022-12-29T12:08:18;0.50;;;0.50;;
9771;SDS011;4925;52.588;13.370;2022-12-29T12:10:54;0.80;;;0.80;;
9771;SDS011;4925;52.588;13.370;2022-12-29T12:14:14;1.60;;;0.50;;
9771;SDS011;4925;52.588;13.370;2022-12-29T12:16:41;0.80;;;0.50;;
9771;SDS011;4925;52.588;13.370;2022-12-29T12:24:52;0.50;;;0.50;;
9771;SDS011;4925;52.588;13.370;2022-12-29T12:27:26;0.67;;;0.50;;
9771;SDS011;4925;52.588;13.370;2022-12-29T12:30:20;0.53;;;0.53;;
9771;SDS011;4925;52.588;13.370;2022-12-29T12:33:04;1.43;;;0.70;;
9771;SDS011;4925;52.588;13.370;2022-12-29T12:41:13;0.50;;;0.50;;
9771;SDS011;4925;52.588;13.370;2022-12-29T12:43:49;0.73;;;0.50;;
9771;SDS011;4925;52.588;13.370;2022-12-29T13:07:04;0.30;;;0.30;;
9771;SDS011;4925;52.588;13.370;2022-12-29T13:24:28;1.50;;;0.67;;
9771;SDS011;4925;52.588;13.370;2022-12-29T13:27:13;0.50;;;0.50;;
9771;SDS011;4925;52.588;13.370;2022-12-29T13:35:56;0.60;;;0.60;;
9771;SDS011;4925;52.588;13.370;2022-12-29T13:38:38;0.53;;;0.53;;
9771;SDS011;4925;52.588;13.370;2022-12-29T13:41:11;1.20;;;1.00;;
9771;SDS011;4925;52.588;13.370;2022-12-29T13:43:46;1.50;;;0.63;;
9771;SDS011;4925;52.588;13.370;2022-12-29T13:46:16;0.57;;;0.50;;
9771;SDS011;4925;52.588;13.370;2022-12-29T13:49:06;0.70;;;0.70;;
9771;SDS011;4925;52.588;13.370;2022-12-29T13:51:40;3.47;;;0.70;;
9771;SDS011;4925;52.588;13.370;2022-12-29T14:02:15;1.63;;;0.70;;
9771;SDS011;4925;52.588;13.370;2022-12-29T14:04:55;0.93;;;0.60;;
9771;SDS011;4925;52.588;13.370;2022-12-29T14:07:25;2.40;;;0.67;;
9771;SDS011;4925;52.588;13.370;2022-12-29T14:09:52;1.87;;;0.70;;
9771;SDS011;4925;52.588;13.370;2022-12-29T14:14:51;0.63;;;0.57;;
9771;SDS011;4925;52.588;13.370;2022-12-29T14:17:19;1.20;;;0.60;;
9771;SDS011;4925;52.588;13.370;2022-12-29T14:19:46;0.80;;;0.80;;
9771;SDS011;4925;52.588;13.370;2022-12-29T14:22:16;1.47;;;0.70;;
9771;SDS011;4925;52.588;13.370;2022-12-29T14:24:49;0.80;;;0.80;;
9771;SDS011;4925;52.588;13.370;2022-12-29T14:29:42;1.53;;;0.90;;
9771;SDS011;4925;52.588;13.370;2022-12-29T14:34:53;0.80;;;0.80;;
9771;SDS011;4925;52.588;13.370;2022-12-29T14:37:42;1.40;;;0.83;;
9771;SDS011;4925;52.588;13.370;2022-12-29T14:40:18;2.23;;;1.10;;
9771;SDS011;4925;52.588;13.370;2022-12-29T14:42:47;2.47;;;1.50;;
9771;SDS011;4925;52.588;13.370;2022-12-29T14:47:44;1.53;;;0.90;;
9771;SDS011;4925;52.588;13.370;2022-12-29T14:52:47;3.73;;;1.20;;
9771;SDS011;4925;52.588;13.370;2022-12-29T14:57:53;2.70;;;1.20;;
9771;SDS011;4925;52.588;13.370;2022-12-29T15:00:33;2.30;;;1.07;;
9771;SDS011;4925;52.588;13.370;2022-12-29T15:05:58;1.60;;;1.13;;
9771;SDS011;4925;52.588;13.370;2022-12-29T15:08:39;2.07;;;1.10;;
9771;SDS011;4925;52.588;13.370;2022-12-29T15:11:17;1.73;;;0.90;;
9771;SDS011;4925;52.588;13.370;2022-12-29T15:13:48;1.50;;;1.20;;
9771;SDS011;4925;52.588;13.370;2022-12-29T15:18:49;1.70;;;1.30;;
9771;SDS011;4925;52.588;13.370;2022-12-29T15:21:15;0.90;;;0.90;;
9771;SDS011;4925;52.588;13.370;2022-12-29T15:23:42;1.53;;;0.87;;
9771;SDS011;4925;52.588;13.370;2022-12-29T15:26:09;0.80;;;0.80;;
9771;SDS011;4925;52.588;13.370;2022-12-29T15:31:20;1.53;;;0.87;;
9771;SDS011;4925;52.588;13.370;2022-12-29T15:33:55;1.20;;;0.97;;
9771;SDS011;4925;52.588;13.370;2022-12-29T15:36:36;2.53;;;1.30;;
9771;SDS011;4925;52.588;13.370;2022-12-29T15:44:52;0.90;;;0.90;;
9771;SDS011;4925;52.588;13.370;2022-12-29T15:47:22;2.37;;;1.17;;
9771;SDS011;4925;52.588;13.370;2022-12-29T15:49:52;0.90;;;0.90;;
9771;SDS011;4925;52.588;13.370;2022-12-29T15:52:22;4.30;;;1.10;;
9771;SDS011;4925;52.588;13.370;2022-12-29T15:54:49;1.27;;;0.80;;
9771;SDS011;4925;52.588;13.370;2022-12-29T15:57:24;3.10;;;1.00;;
9771;SDS011;4925;52.588;13.370;2022-12-29T15:59:51;1.10;;;1.00;;
9771;SDS011;4925;52.588;13.370;2022-12-29T16:02:18;5.03;;;1.70;;
9771;SDS011;4925;52.588;13.370;2022-12-29T16:04:46;1.73;;;1.40;;
9771;SDS011;4925;52.588;13.370;2022-12-29T16:07:30;1.63;;;1.40;;
9771;SDS011;4925;52.588;13.370;2022-12-29T16:10:01;1.93;;;1.30;;
9771;SDS011;4925;52.588;13.370;2022-12-29T16:12:32;1.40;;;1.30;;
9771;SDS011;4925;52.588;13.370;2022-12-29T16:15:00;1.47;;;1.37;;
9771;SDS011;4925;52.588;13.370;2022-12-29T16:17:33;1.93;;;0.80;;
9771;SDS011;4925;52.588;13.370;2022-12-29T16:20:22;2.70;;;1.23;;
9771;SDS011;4925;52.588;13.370;2022-12-29T16:22:56;1.73;;;0.90;;
9771;SDS011;4925;52.588;13.370;2022-12-29T16:25:25;2.07;;;1.27;;
9771;SDS011;4925;52.588;13.370;2022-12-29T16:27:56;3.67;;;1.50;;
9771;SDS011;4925;52.588;13.370;2022-12-29T16:30:24;1.37;;;1.13;;
9771;SDS011;4925;52.588;13.370;2022-12-29T16:32:53;2.40;;;1.03;;
9771;SDS011;4925;52.588;13.370;2022-12-29T16:35:25;4.67;;;1.17;;
9771;SDS011;4925;52.588;13.370;2022-12-29T16:40:53;1.53;;;0.87;;
9771;SDS011;4925;52.588;13.370;2022-12-29T16:43:25;0.90;;;0.90;;
9771;SDS011;4925;52.588;13.370;2022-12-29T16:48:46;1.47;;;0.87;;
9771;SDS011;4925;52.588;13.370;2022-12-29T16:51:16;1.43;;;0.80;;
9771;SDS011;4925;52.588;13.370;2022-12-29T16:53:48;2.67;;;0.90;;
9771;SDS011;4925;52.588;13.370;2022-12-29T16:56:18;2.13;;;0.90;;
9771;SDS011;4925;52.588;13.370;2022-12-29T16:58:50;4.50;;;0.90;;
9771;SDS011;4925;52.588;13.370;2022-12-29T17:01:19;1.63;;;0.80;;
9771;SDS011;4925;52.588;13.370;2022-12-29T17:03:56;1.73;;;0.90;;
9771;SDS011;4925;52.588;13.370;2022-12-29T17:06:25;5.10;;;1.33;;
9771;SDS011;4925;52.588;13.370;2022-12-29T17:08:51;1.93;;;1.00;;
9771;SDS011;4925;52.588;13.370;2022-12-29T17:11:21;2.57;;;1.03;;
9771;SDS011;4925;52.588;13.370;2022-12-29T17:14:16;1.93;;;0.90;;
9771;SDS011;4925;52.588;13.370;2022-12-29T17:17:02;4.43;;;0.70;;
9771;SDS011;4925;52.588;13.370;2022-12-29T17:19:31;2.30;;;0.70;;
9771;SDS011;4925;52.588;13.370;2022-12-29T17:21:59;1.87;;;0.90;;
9771;SDS011;4925;52.588;13.370;2022-12-29T17:24:25;1.63;;;0.90;;
9771;SDS011;4925;52.588;13.370;2022-12-29T17:26:53;1.17;;;0.73;;
9771;SDS011;4925;52.588;13.370;2022-12-29T17:31:58;3.93;;;0.90;;
9771;SDS011;4925;52.588;13.370;2022-12-29T17:34:26;2.80;;;0.97;;
9771;SDS011;4925;52.588;13.370;2022-12-29T17:36:52;2.17;;;0.87;;
9771;SDS011;4925;52.588;13.370;2022-12-29T17:39:18;1.43;;;0.90;;
9771;SDS011;4925;52.588;13.370;2022-12-29T17:41:43;1.67;;;1.30;;
9771;SDS011;4925;52.588;13.370;2022-12-29T17:44:13;1.63;;;1.00;;
9771;SDS011;4925;52.588;13.370;2022-12-29T17:46:42;3.30;;;1.27;;
9771;SDS011;4925;52.588;13.370;2022-12-29T17:49:12;1.40;;;1.00;;
9771;SDS011;4925;52.588;13.370;2022-12-29T17:51:43;1.73;;;0.93;;
9771;SDS011;4925;52.588;13.370;2022-12-29T17:54:45;4.23;;;1.20;;
9771;SDS011;4925;52.588;13.370;2022-12-29T17:57:08;1.77;;;1.00;;
9771;SDS011;4925;52.588;13.370;2022-12-29T17:59:36;1.87;;;0.77;;
9771;SDS011;4925;52.588;13.370;2022-12-29T18:02:02;0.70;;;0.70;;
9771;SDS011;4925;52.588;13.370;2022-12-29T18:04:29;3.33;;;0.87;;
9771;SDS011;4925;52.588;13.370;2022-12-29T18:06:55;1.77;;;0.80;;
9771;SDS011;4925;52.588;13.370;2022-12-29T18:09:20;1.53;;;0.93;;
9771;SDS011;4925;52.588;13.370;2022-12-29T18:11:46;3.37;;;1.10;;
9771;SDS011;4925;52.588;13.370;2022-12-29T18:14:13;2.47;;;1.13;;
9771;SDS011;4925;52.588;13.370;2022-12-29T18:16:40;2.00;;;1.20;;
9771;SDS011;4925;52.588;13.370;2022-12-29T18:19:06;2.47;;;1.03;;